Time;durP1;ratioP1;P1;durP2;ratioP2;P2;SDS_P1;SDS_P2;PMS_P1;PMS_P2;Temp;Humidity;BMP_temperature;BMP_pressure;BME280_temperature;BME280_humidity;BME280_pressure;Samples;Min_cycle;Max_cycle;Signal;HPM_P1;HPM_P2
2024/02/14 00:00:02;;;;;;;;;;;;;;;16.54;48.98;100365.63;5018434;28;1151;-46
2024/02/14 00:02:30;;;;;;;;;;;;;;;17.25;47.13;100366.22;5018448;28;1111;-49
2024/02/14 00:04:55;;;;;;;;;;;;;;;16.33;49.25;100368.47;5031721;28;1139;-48
2024/02/14 00:07:21;;;;;;;;;;;;;;;15.99;50.28;100374.66;5025132;28;1971;-48
2024/02/14 00:09:47;;;;;;;;;;;;;;;15.81;50.71;100375.22;5024305;28;1098;-47
2024/02/14 00:12:12;;;;;;;;;;;;;;;15.62;51.18;100377.72;5031537;28;1070;-45
2024/02/14 00:14:38;;;;;;;;;;;;;;;15.46;51.59;100376.91;5018265;28;1143;-47
2024/02/14 00:17:05;;;;;;;;;;;;;;;16.93;48.29;100384.88;5017967;28;1437;-45
2024/02/14 00:19:30;;;;;;;;;;;;;;;17.50;46.34;100380.84;5018081;28;1134;-49
2024/02/14 00:21:56;;;;;;;;;;;;;;;16.38;49.24;100386.81;5025040;28;1094;-47
2024/02/14 00:24:23;;;;;;;;;;;;;;;15.98;50.36;100388.63;5024052;28;1043;-46
2024/02/14 00:26:50;;;;;;;;;;;;;;;15.74;50.79;100384.53;5025748;28;1071;-46
2024/02/14 00:29:15;;;;;;;;;;;;;;;15.59;51.14;100389.25;5025000;28;1983;-47
2024/02/14 00:31:43;;;;;;;;;;;;;;;15.72;51.21;100384.00;5029913;28;1060;-46
2024/02/14 00:34:08;;;;;;;;;;;;;;;17.27;47.25;100388.75;5018678;28;1029;-44
2024/02/14 00:36:34;;;;;;;;;;;;;;;17.14;47.51;100384.75;5038124;28;1418;-47
2024/02/14 00:38:59;;;;;;;;;;;;;;;16.36;49.30;100387.09;5023233;28;1098;-47
2024/02/14 00:41:29;;;;;;;;;;;;;;;15.99;50.12;100385.63;5024600;28;1216;-47
2024/02/14 00:43:58;;;;;;;;;;;;;;;15.81;50.50;100388.94;5023334;28;1027;-44
2024/02/14 00:46:23;;;;;;;;;;;;;;;15.61;51.13;100389.78;5025796;28;1044;-46
2024/02/14 00:48:49;;;;;;;;;;;;;;;15.43;51.51;100391.16;5024370;28;1913;-48
2024/02/14 00:51:14;;;;;;;;;;;;;;;16.94;48.27;100393.94;5029414;28;1102;-46
2024/02/14 00:53:40;;;;;;;;;;;;;;;17.26;47.19;100396.19;5030650;28;1028;-46
2024/02/14 00:56:06;;;;;;;;;;;;;;;16.37;49.29;100399.72;5025089;28;1076;-49
2024/02/14 00:58:31;;;;;;;;;;;;;;;15.99;50.31;100403.97;5022974;28;1106;-47
2024/02/14 01:00:57;;;;;;;;;;;;;;;15.79;50.98;100396.59;5024896;28;1072;-44
2024/02/14 01:03:23;;;;;;;;;;;;;;;15.57;51.15;100408.66;5036097;28;1115;-48
2024/02/14 01:05:48;;;;;;;;;;;;;;;16.55;49.27;100405.66;5017655;28;1051;-44
2024/02/14 01:08:14;;;;;;;;;;;;;;;17.67;46.41;100397.75;5029336;28;1914;-48
2024/02/14 01:10:40;;;;;;;;;;;;;;;16.57;48.96;100403.47;5017485;28;1056;-47
2024/02/14 01:13:06;;;;;;;;;;;;;;;16.14;50.09;100397.63;5016861;28;1222;-48
2024/02/14 01:15:33;;;;;;;;;;;;;;;15.84;50.63;100396.63;5017336;28;1055;-48
2024/02/14 01:17:58;;;;;;;;;;;;;;;15.60;51.33;100394.44;5017400;28;1084;-46
2024/02/14 01:20:24;;;;;;;;;;;;;;;15.53;51.50;100399.38;5016842;28;1067;-47
2024/02/14 01:22:50;;;;;;;;;;;;;;;16.46;49.47;100408.19;5016901;28;1118;-48
2024/02/14 01:25:15;;;;;;;;;;;;;;;17.59;46.59;100418.44;5024054;28;1181;-46
2024/02/14 01:27:42;;;;;;;;;;;;;;;16.58;48.74;100413.38;5023493;28;1915;-46
2024/02/14 01:30:09;;;;;;;;;;;;;;;16.05;50.14;100413.84;5016621;28;1067;-50
2024/02/14 01:32:34;;;;;;;;;;;;;;;15.87;50.38;100423.47;5016770;28;1146;-45
2024/02/14 01:35:00;;;;;;;;;;;;;;;15.59;51.22;100420.19;5017290;28;1028;-47
2024/02/14 01:37:26;;;;;;;;;;;;;;;15.80;50.99;100422.94;5030312;28;1060;-45
2024/02/14 01:39:52;;;;;;;;;;;;;;;17.32;47.13;100429.09;5035390;28;1060;-47
2024/02/14 01:42:17;;;;;;;;;;;;;;;16.75;48.50;100430.28;5022710;28;1123;-48
2024/02/14 01:44:43;;;;;;;;;;;;;;;16.14;50.15;100414.09;5023306;28;1096;-46
2024/02/14 01:47:09;;;;;;;;;;;;;;;15.81;50.62;100419.94;5022707;28;2013;-45
2024/02/14 01:49:36;;;;;;;;;;;;;;;15.56;51.22;100420.75;5016705;28;1155;-49
2024/02/14 01:52:02;;;;;;;;;;;;;;;15.50;51.45;100416.34;5016575;28;1194;-47
2024/02/14 01:54:28;;;;;;;;;;;;;;;16.93;48.31;100422.53;5023605;28;1075;-46
2024/02/14 01:56:54;;;;;;;;;;;;;;;17.24;47.16;100425.88;5033954;28;1407;-48
2024/02/14 01:59:20;;;;;;;;;;;;;;;16.35;49.44;100428.53;5016782;28;1136;-46
2024/02/14 02:01:45;;;;;;;;;;;;;;;15.95;50.57;100417.44;5030117;28;1067;-49
2024/02/14 02:04:11;;;;;;;;;;;;;;;15.74;50.93;100424.84;5024124;28;1128;-50
2024/02/14 02:06:37;;;;;;;;;;;;;;;15.54;51.51;100422.94;5021985;28;1047;-48
2024/02/14 02:09:02;;;;;;;;;;;;;;;15.85;50.65;100417.44;5016869;28;1989;-49
2024/02/14 02:11:28;;;;;;;;;;;;;;;17.33;47.10;100417.81;5016584;28;1127;-49
2024/02/14 02:13:55;;;;;;;;;;;;;;;16.68;48.60;100421.53;5024032;28;1120;-46
2024/02/14 02:16:21;;;;;;;;;;;;;;;16.10;50.10;100421.22;5022987;28;1114;-45
2024/02/14 02:18:48;;;;;;;;;;;;;;;15.85;50.58;100425.66;5028344;28;1173;-47
2024/02/14 02:21:14;;;;;;;;;;;;;;;15.64;51.23;100425.69;5032541;28;1183;-48
2024/02/14 02:23:41;;;;;;;;;;;;;;;15.46;51.38;100424.31;5020481;28;1076;-46
2024/02/14 02:26:07;;;;;;;;;;;;;;;16.31;49.90;100427.47;5022073;28;1357;-44
2024/02/14 02:28:32;;;;;;;;;;;;;;;17.50;46.58;100427.59;5031060;28;1918;-44
2024/02/14 02:30:58;;;;;;;;;;;;;;;16.81;48.22;100433.00;5035443;28;1083;-45
2024/02/14 02:33:23;;;;;;;;;;;;;;;16.15;49.93;100427.50;5031575;28;1059;-46
2024/02/14 02:35:49;;;;;;;;;;;;;;;15.96;50.29;100443.72;5019934;28;1099;-48
2024/02/14 02:38:16;;;;;;;;;;;;;;;15.69;51.00;100433.88;5028798;28;1112;-48
2024/02/14 02:40:41;;;;;;;;;;;;;;;15.49;51.33;100434.72;5024860;28;1087;-46
2024/02/14 02:43:07;;;;;;;;;;;;;;;15.85;50.94;100442.09;5020379;28;1131;-45
2024/02/14 02:45:33;;;;;;;;;;;;;;;17.28;47.35;100446.16;5019660;28;1074;-47
2024/02/14 02:48:00;;;;;;;;;;;;;;;16.83;48.12;100447.25;5020043;28;1906;-45
2024/02/14 02:50:26;;;;;;;;;;;;;;;16.16;49.80;100442.03;5021817;28;1528;-45
2024/02/14 02:52:51;;;;;;;;;;;;;;;15.88;50.64;100447.06;5030891;28;1035;-48
2024/02/14 02:55:17;;;;;;;;;;;;;;;15.61;51.08;100447.31;5034055;28;1064;-48
2024/02/14 02:57:43;;;;;;;;;;;;;;;15.48;51.24;100449.50;5031388;28;896;-45
2024/02/14 03:00:09;;;;;;;;;;;;;;;16.90;48.06;100450.53;5032962;28;1035;-46
2024/02/14 03:02:38;;;;;;;;;;;;;;;16.97;47.82;100453.81;5028124;28;1112;-49
2024/02/14 03:05:06;;;;;;;;;;;;;;;16.15;49.66;100445.91;5024632;28;1046;-48
2024/02/14 03:07:31;;;;;;;;;;;;;;;15.95;50.10;100453.09;5019295;28;1975;-48
2024/02/14 03:09:57;;;;;;;;;;;;;;;15.64;51.17;100446.75;5021732;28;1119;-46
2024/02/14 03:12:23;;;;;;;;;;;;;;;15.56;51.13;100453.63;5030426;28;1120;-46
2024/02/14 03:14:49;;;;;;;;;;;;;;;16.73;48.35;100454.47;5019133;28;1100;-45
2024/02/14 03:17:15;;;;;;;;;;;;;;;17.51;46.32;100451.22;5019371;28;1114;-46
2024/02/14 03:19:40;;;;;;;;;;;;;;;16.48;48.88;100460.88;5019956;28;1055;-48
2024/02/14 03:22:08;;;;;;;;;;;;;;;16.05;49.78;100465.94;5019286;28;1040;-45
2024/02/14 03:24:36;;;;;;;;;;;;;;;15.75;50.75;100453.88;5032612;28;1071;-46
2024/02/14 03:27:04;;;;;;;;;;;;;;;15.58;51.00;100456.91;5029230;28;1092;-44
2024/02/14 03:29:29;;;;;;;;;;;;;;;15.85;50.84;100470.38;5034965;28;1910;-48
2024/02/14 03:31:58;;;;;;;;;;;;;;;17.33;46.72;100472.78;5028726;28;1115;-45
2024/02/14 03:34:25;;;;;;;;;;;;;;;16.91;47.87;100463.16;5021082;28;1452;-49
2024/02/14 03:36:50;;;;;;;;;;;;;;;16.23;49.31;100465.34;5029321;28;1110;-46
2024/02/14 03:39:17;;;;;;;;;;;;;;;15.88;50.40;100475.28;5021558;28;1087;-50
2024/02/14 03:41:42;;;;;;;;;;;;;;;15.66;50.65;100477.47;5030509;28;1131;-47
2024/02/14 03:44:09;;;;;;;;;;;;;;;15.63;51.07;100481.59;5024934;28;1040;-44
2024/02/14 03:46:35;;;;;;;;;;;;;;;16.90;48.07;100478.84;5027048;28;896;-45
2024/02/14 03:49:01;;;;;;;;;;;;;;;17.30;46.74;100483.53;5032120;28;1910;-44
2024/02/14 03:51:26;;;;;;;;;;;;;;;16.35;49.09;100481.50;5018513;28;1451;-47
2024/02/14 03:53:52;;;;;;;;;;;;;;;15.94;50.00;100487.06;5018703;28;1052;-47
2024/02/14 03:56:18;;;;;;;;;;;;;;;15.78;50.46;100496.38;5030752;28;1122;-45
2024/02/14 03:58:43;;;;;;;;;;;;;;;15.65;50.71;100497.75;5034920;28;1151;-48
2024/02/14 04:01:09;;;;;;;;;;;;;;;15.57;50.91;100502.69;5028148;28;1079;-47
2024/02/14 04:03:34;;;;;;;;;;;;;;;17.08;47.37;100502.09;5022716;28;1139;-49
2024/02/14 04:06:00;;;;;;;;;;;;;;;17.27;46.76;100506.91;5018486;28;1044;-45
2024/02/14 04:08:26;;;;;;;;;;;;;;;16.33;48.93;100508.41;5032009;28;1922;-46
2024/02/14 04:10:53;;;;;;;;;;;;;;;15.98;50.04;100512.84;5018472;28;990;-46
2024/02/14 04:13:19;;;;;;;;;;;;;;;15.73;50.53;100522.69;5021118;28;1087;-47
2024/02/14 04:15:46;;;;;;;;;;;;;;;15.61;50.70;100524.06;5028737;28;1106;-46
2024/02/14 04:18:11;;;;;;;;;;;;;;;16.38;49.40;100527.59;5026276;28;1076;-55
2024/02/14 04:20:37;;;;;;;;;;;;;;;17.58;46.19;100534.19;5017631;28;1126;-55
2024/02/14 04:23:05;;;;;;;;;;;;;;;16.81;47.87;100531.84;5021501;28;1127;-51
2024/02/14 04:25:31;;;;;;;;;;;;;;;16.17;49.56;100526.00;5018017;28;1152;-53
2024/02/14 04:27:56;;;;;;;;;;;;;;;15.91;50.05;100528.78;5028849;28;1954;-56
2024/02/14 04:30:23;;;;;;;;;;;;;;;15.75;50.41;100538.88;5019638;28;1059;-55
2024/02/14 04:32:49;;;;;;;;;;;;;;;15.53;51.07;100537.22;5029112;28;1044;-54
2024/02/14 04:35:14;;;;;;;;;;;;;;;16.35;49.22;100544.59;5019517;28;1007;-52
2024/02/14 04:37:43;;;;;;;;;;;;;;;17.54;46.30;100538.63;5018054;28;1056;-51
2024/02/14 04:40:09;;;;;;;;;;;;;;;16.53;48.72;100547.88;5035471;28;1116;-51
2024/02/14 04:42:35;;;;;;;;;;;;;;;16.03;49.66;100540.28;5025592;28;1090;-55
2024/02/14 04:45:01;;;;;;;;;;;;;;;15.74;50.59;100557.25;5018356;28;1929;-52
2024/02/14 04:47:27;;;;;;;;;;;;;;;15.63;50.59;100561.06;5024027;28;1979;-54
2024/02/14 04:49:52;;;;;;;;;;;;;;;15.42;51.26;100565.69;5017256;28;1918;-54
2024/02/14 04:52:18;;;;;;;;;;;;;;;16.82;47.82;100574.69;5025274;28;2201;-55
2024/02/14 04:54:44;;;;;;;;;;;;;;;17.45;46.21;100560.41;5026169;28;1781;-51
2024/02/14 04:57:09;;;;;;;;;;;;;;;16.40;48.70;100577.53;5022912;28;2134;-56
2024/02/14 04:59:35;;;;;;;;;;;;;;;16.01;49.90;100564.41;5017102;28;2033;-58
2024/02/14 05:02:00;;;;;;;;;;;;;;;15.72;50.55;100567.66;5029708;28;1416;-56
2024/02/14 05:04:31;;;;;;;;;;;;;;;15.63;50.71;100571.22;5088780;27;1631;-53
2024/02/14 05:06:57;;;;;;;;;;;;;;;15.44;51.29;100576.38;5072880;28;1099;-57
2024/02/14 05:09:22;;;;;;;;;;;;;;;17.02;47.20;100574.63;5090128;28;948;-55
2024/02/14 05:11:48;;;;;;;;;;;;;;;17.23;46.55;100574.53;5079445;28;890;-56
2024/02/14 05:14:14;;;;;;;;;;;;;;;16.31;48.64;100572.88;5079484;28;949;-56
2024/02/14 05:16:40;;;;;;;;;;;;;;;17.34;46.74;100581.63;5092859;28;1142;-58
2024/02/14 05:19:06;;;;;;;;;;;;;;;17.40;46.42;100583.25;5079156;28;1221;-57
2024/02/14 05:21:31;;;;;;;;;;;;;;;16.43;48.70;100593.44;5093155;28;1179;-53
2024/02/14 05:23:57;;;;;;;;;;;;;;;16.80;48.40;100593.34;5079716;28;1913;-55
2024/02/14 05:26:23;;;;;;;;;;;;;;;18.04;45.52;100608.13;5080881;28;986;-59
2024/02/14 05:28:49;;;;;;;;;;;;;;;16.60;48.49;100617.84;5091436;28;2154;-52
2024/02/14 05:31:15;;;;;;;;;;;;;;;16.33;48.01;100622.84;5092507;28;1061;-52
2024/02/14 05:33:40;;;;;;;;;;;;;;;17.72;46.69;100636.09;5080362;28;994;-55
2024/02/14 05:36:06;;;;;;;;;;;;;;;17.45;46.85;100632.69;5072570;28;991;-57
2024/02/14 05:38:34;;;;;;;;;;;;;;;16.62;47.93;100634.06;5079277;28;1288;-51
2024/02/14 05:41:00;;;;;;;;;;;;;;;16.31;47.77;100631.31;5086527;28;1058;-49
2024/02/14 05:43:25;;;;;;;;;;;;;;;17.98;46.26;100633.19;5090866;28;1918;-48
2024/02/14 05:45:51;;;;;;;;;;;;;;;17.40;47.30;100646.47;5072842;28;1070;-56
2024/02/14 05:48:17;;;;;;;;;;;;;;;16.74;47.71;100650.22;5072616;28;1104;-45
2024/02/14 05:50:42;;;;;;;;;;;;;;;16.40;47.63;100640.66;5077221;28;1067;-52
2024/02/14 05:53:08;;;;;;;;;;;;;;;16.81;48.00;100658.16;5084906;28;995;-50
2024/02/14 05:55:34;;;;;;;;;;;;;;;16.63;47.93;100660.38;5084856;28;1333;-52
2024/02/14 05:58:00;;;;;;;;;;;;;;;17.50;47.44;100661.25;5100510;28;2394;-50
2024/02/14 06:00:26;;;;;;;;;;;;;;;18.04;45.92;100659.59;5094779;28;1249;-54
2024/02/14 06:02:51;;;;;;;;;;;;;;;16.85;48.11;100656.50;5096901;28;1917;-49
2024/02/14 06:05:17;;;;;;;;;;;;;;;17.17;48.20;100666.34;5111698;28;1141;-45
2024/02/14 06:07:44;;;;;;;;;;;;;;;17.68;47.02;100668.84;5118412;28;1304;-50
2024/02/14 06:10:10;;;;;;;;;;;;;;;16.93;47.63;100664.22;5114136;28;969;-47
2024/02/14 06:12:36;;;;;;;;;;;;;;;16.54;47.66;100665.63;5111180;28;1077;-50
2024/02/14 06:15:01;;;;;;;;;;;;;;;17.23;47.70;100670.72;5091238;28;1072;-50
2024/02/14 06:17:27;;;;;;;;;;;;;;;17.54;47.35;100667.81;5092194;28;1131;-50
2024/02/14 06:19:53;;;;;;;;;;;;;;;16.83;48.08;100683.41;5092375;28;1081;-48
2024/02/14 06:22:18;;;;;;;;;;;;;;;17.76;47.19;100676.50;5096869;28;1905;-51
2024/02/14 06:24:45;;;;;;;;;;;;;;;17.79;46.64;100670.44;5078902;28;1019;-46
2024/02/14 06:27:10;;;;;;;;;;;;;;;16.97;47.76;100670.81;5078523;28;1089;-45
2024/02/14 06:29:36;;;;;;;;;;;;;;;17.18;47.62;100688.03;5080099;28;2228;-49
2024/02/14 06:32:02;;;;;;;;;;;;;;;17.41;47.63;100688.50;5084279;28;1019;-47
2024/02/14 06:34:28;;;;;;;;;;;;;;;16.89;47.49;100701.59;5097996;28;1069;-52
2024/02/14 06:36:53;;;;;;;;;;;;;;;17.53;47.35;100696.41;5100209;28;1494;-52
2024/02/14 06:39:20;;;;;;;;;;;;;;;17.64;47.33;100695.25;5103884;28;981;-50
2024/02/14 06:41:47;;;;;;;;;;;;;;;16.91;47.72;100699.38;5097671;28;1070;-50
2024/02/14 06:44:12;;;;;;;;;;;;;;;16.70;47.32;100707.59;5085448;28;1976;-49
2024/02/14 06:46:38;;;;;;;;;;;;;;;16.81;46.90;100707.59;5097402;28;1051;-49
2024/02/14 06:49:04;;;;;;;;;;;;;;;17.95;46.60;100706.16;5098916;28;1315;-47
2024/02/14 06:51:30;;;;;;;;;;;;;;;17.01;48.05;100715.00;5098522;28;1106;-48
2024/02/14 06:53:56;;;;;;;;;;;;;;;16.65;47.28;100717.75;5094791;28;1527;-51
2024/02/14 06:56:21;;;;;;;;;;;;;;;18.24;46.15;100724.66;5096416;28;1011;-53
2024/02/14 06:58:52;;;;;;;;;;;;;;;17.53;47.32;100719.25;5089915;28;2402;-53
2024/02/14 07:01:21;;;;;;;;;;;;;;;16.95;47.72;100727.13;5087309;28;1075;-57
2024/02/14 07:03:47;;;;;;;;;;;;;;;16.70;47.12;100731.50;5092766;28;1938;-56
2024/02/14 07:06:13;;;;;;;;;;;;;;;16.49;46.98;100725.19;5089016;28;1384;-59
2024/02/14 07:08:41;;;;;;;;;;;;;;;17.40;47.41;100725.34;5098320;28;1067;-55
2024/02/14 07:11:07;;;;;;;;;;;;;;;18.31;46.19;100727.91;5079664;28;977;-54
2024/02/14 07:13:32;;;;;;;;;;;;;;;17.20;47.83;100723.50;5090388;28;1189;-57
2024/02/14 07:15:58;;;;;;;;;;;;;;;16.86;47.52;100718.59;5084907;28;1031;-58
2024/02/14 07:18:23;;;;;;;;;;;;;;;16.69;46.75;100719.69;5083460;28;1165;-55
2024/02/14 07:20:49;;;;;;;;;;;;;;;16.50;46.27;100732.31;5085100;28;1252;-53
2024/02/14 07:23:15;;;;;;;;;;;;;;;17.33;46.95;100735.81;5091835;28;1970;-50
2024/02/14 07:25:40;;;;;;;;;;;;;;;16.96;48.17;100746.06;5091272;28;1340;-53
2024/02/14 07:28:06;;;;;;;;;;;;;;;16.54;47.58;100733.44;5093106;28;2447;-55
2024/02/14 07:30:31;;;;;;;;;;;;;;;16.45;46.70;100740.56;5086191;28;1280;-58
2024/02/14 07:32:57;;;;;;;;;;;;;;;16.79;47.36;100745.47;5080102;28;1090;-51
2024/02/14 07:35:23;;;;;;;;;;;;;;;17.53;47.26;100740.41;5086326;28;1090;-51
2024/02/14 07:37:49;;;;;;;;;;;;;;;16.71;48.28;100749.63;5090951;28;1115;-49
2024/02/14 07:40:14;;;;;;;;;;;;;;;16.92;48.22;100750.47;5093535;28;1284;-52
2024/02/14 07:42:40;;;;;;;;;;;;;;;18.43;45.64;100744.06;5097128;28;1976;-51
2024/02/14 07:45:06;;;;;;;;;;;;;;;17.12;48.13;100759.78;5095502;28;1102;-55
2024/02/14 07:47:31;;;;;;;;;;;;;;;16.61;48.19;100750.44;5089485;28;1059;-52
2024/02/14 07:49:57;;;;;;;;;;;;;;;16.49;47.33;100753.44;5080933;28;1014;-49
2024/02/14 07:52:23;;;;;;;;;;;;;;;17.72;47.36;100740.59;5090664;28;1174;-49
2024/02/14 07:54:52;;;;;;;;;;;;;;;17.34;47.88;100749.28;5082615;28;1138;-52
2024/02/14 07:57:18;;;;;;;;;;;;;;;16.72;47.81;100754.03;5081060;28;1169;-51
2024/02/14 07:59:44;;;;;;;;;;;;;;;16.57;47.24;100746.59;5084946;28;2662;-47
2024/02/14 08:02:09;;;;;;;;;;;;;;;17.37;47.57;100765.19;5087805;28;1901;-56
2024/02/14 08:04:35;;;;;;;;;;;;;;;18.18;46.36;100756.91;5097061;28;1019;-54
2024/02/14 08:07:00;;;;;;;;;;;;;;;17.06;47.91;100762.50;5096926;28;1158;-51
2024/02/14 08:09:26;;;;;;;;;;;;;;;16.76;47.58;100766.09;5094947;28;1105;-49
2024/02/14 08:11:53;;;;;;;;;;;;;;;16.74;47.91;100763.59;5088078;28;1345;-54
2024/02/14 08:14:18;;;;;;;;;;;;;;;18.38;46.09;100761.44;5083586;28;1058;-51
2024/02/14 08:16:44;;;;;;;;;;;;;;;17.28;47.84;100769.63;5087445;28;1026;-51
2024/02/14 08:19:09;;;;;;;;;;;;;;;16.87;47.68;100758.66;5085925;28;1024;-50
2024/02/14 08:21:36;;;;;;;;;;;;;;;17.47;47.65;100758.03;5096499;28;1104;-46
2024/02/14 08:24:01;;;;;;;;;;;;;;;17.65;47.33;100767.59;5096462;28;1967;-49
2024/02/14 08:26:27;;;;;;;;;;;;;;;16.96;47.86;100767.19;5099741;28;1057;-47
2024/02/14 08:28:53;;;;;;;;;;;;;;;16.73;47.45;100759.22;5093859;28;2461;-54
2024/02/14 08:31:19;;;;;;;;;;;;;;;18.23;46.21;100765.13;5089710;28;1162;-52
2024/02/14 08:33:45;;;;;;;;;;;;;;;17.29;47.82;100765.75;5079056;28;1102;-49
2024/02/14 08:36:10;;;;;;;;;;;;;;;16.87;47.73;100766.91;5090980;28;1336;-55
2024/02/14 08:38:36;;;;;;;;;;;;;;;16.69;46.98;100760.03;5088361;28;1164;-51
2024/02/14 08:41:02;;;;;;;;;;;;;;;17.20;47.65;100778.44;5086905;28;1165;-54
2024/02/14 08:43:31;;;;;;;;;;;;;;;18.16;46.28;100761.88;5087429;28;1917;-53
2024/02/14 08:45:56;;;;;;;;;;;;;;;17.15;47.89;100762.75;5085790;28;1371;-58
2024/02/14 08:48:22;;;;;;;;;;;;;;;16.75;47.44;100770.75;5088533;28;1093;-58
2024/02/14 08:50:48;;;;;;;;;;;;;;;17.40;47.84;100759.16;5094868;28;1019;-59
2024/02/14 08:53:14;;;;;;;;;;;;;;;18.46;45.55;100760.81;5094455;28;1102;-57
2024/02/14 08:55:39;;;;;;;;;;;;;;;17.31;47.40;100771.81;5095110;28;1069;-46
2024/02/14 08:58:05;;;;;;;;;;;;;;;16.91;47.46;100781.75;5084387;28;2011;-51
2024/02/14 09:00:31;;;;;;;;;;;;;;;17.47;47.47;100767.09;5088109;28;1343;-51
2024/02/14 09:03:00;;;;;;;;;;;;;;;17.77;46.99;100766.16;5066579;28;1913;-48
2024/02/14 09:05:25;;;;;;;;;;;;;;;16.99;47.68;100764.72;5090994;28;1184;-53
2024/02/14 09:07:51;;;;;;;;;;;;;;;16.79;47.41;100781.19;5095839;28;1082;-52
2024/02/14 09:10:16;;;;;;;;;;;;;;;17.45;47.52;100770.13;5056002;28;1128;-56
2024/02/14 09:12:42;;;;;;;;;;;;;;;17.96;46.59;100760.03;5090847;28;1031;-49
2024/02/14 09:15:08;;;;;;;;;;;;;;;17.14;47.54;100766.63;5090155;28;1077;-53
2024/02/14 09:17:34;;;;;;;;;;;;;;;17.21;47.94;100760.88;5093715;28;1134;-47
2024/02/14 09:19:59;;;;;;;;;;;;;;;17.59;47.19;100770.34;5084171;28;1362;-48
2024/02/14 09:22:25;;;;;;;;;;;;;;;16.96;47.58;100762.53;5105596;28;1984;-52
2024/02/14 09:24:50;;;;;;;;;;;;;;;16.75;47.22;100759.78;5082967;28;982;-52
2024/02/14 09:27:16;;;;;;;;;;;;;;;17.60;47.39;100761.00;5093359;28;979;-53
2024/02/14 09:29:42;;;;;;;;;;;;;;;17.44;47.38;100762.16;5078821;28;2782;-50
2024/02/14 09:32:07;;;;;;;;;;;;;;;16.91;47.59;100759.78;5074614;28;1066;-51
2024/02/14 09:34:34;;;;;;;;;;;;;;;16.62;47.44;100765.81;5087204;28;1170;-49
2024/02/14 09:36:59;;;;;;;;;;;;;;;16.45;46.97;100760.56;5082409;28;1022;-52
2024/02/14 09:39:25;;;;;;;;;;;;;;;17.38;47.51;100764.09;5084360;28;1233;-49
2024/02/14 09:41:52;;;;;;;;;;;;;;;17.76;46.70;100775.50;5095302;28;1078;-52
2024/02/14 09:44:17;;;;;;;;;;;;;;;16.92;47.81;100767.75;5091100;28;1910;-53
2024/02/14 09:46:43;;;;;;;;;;;;;;;16.60;47.54;100757.03;5091205;28;1082;-55
2024/02/14 09:49:09;;;;;;;;;;;;;;;18.32;45.82;100764.53;5086890;28;1448;-53
2024/02/14 09:51:34;;;;;;;;;;;;;;;17.70;46.91;100756.59;5097819;28;1010;-48
2024/02/14 09:54:01;;;;;;;;;;;;;;;16.97;47.82;100760.59;5099236;28;1157;-51
2024/02/14 09:56:27;;;;;;;;;;;;;;;16.77;47.09;100764.97;5087083;28;1109;-52
2024/02/14 09:59:00;;;;;;;;;;;;;;;16.61;46.58;100772.41;5074545;28;2512;-49
2024/02/14 10:01:26;;;;;;;;;;;;;;;17.88;46.84;100777.09;5086379;28;1038;-50
2024/02/14 10:03:52;;;;;;;;;;;;;;;17.40;47.37;100775.66;5078965;28;2027;-47
2024/02/14 10:06:20;;;;;;;;;;;;;;;16.89;47.77;100782.03;5091381;28;1134;-51
2024/02/14 10:08:48;;;;;;;;;;;;;;;16.72;46.97;100795.22;5095153;28;1078;-56
2024/02/14 10:11:15;;;;;;;;;;;;;;;16.66;46.56;100802.63;5085033;28;1304;-52
2024/02/14 10:13:45;;;;;;;;;;;;;;;17.45;47.17;100792.13;5081073;28;1012;-51
2024/02/14 10:16:12;;;;;;;;;;;;;;;17.39;47.46;100804.25;5098130;28;1074;-58
2024/02/14 10:18:39;;;;;;;;;;;;;;;16.80;47.48;100793.81;5098972;28;1093;-58
2024/02/14 10:21:04;;;;;;;;;;;;;;;16.58;47.10;100806.72;5099488;28;1271;-50
2024/02/14 10:23:30;;;;;;;;;;;;;;;16.66;47.00;100801.78;5082126;28;1913;-52
2024/02/14 10:25:56;;;;;;;;;;;;;;;17.84;46.70;100803.53;5084711;28;1745;-56
2024/02/14 10:28:21;;;;;;;;;;;;;;;16.89;48.12;100809.50;5097573;28;2407;-58
2024/02/14 10:30:49;;;;;;;;;;;;;;;16.58;47.66;100811.41;5099066;28;1034;-53
2024/02/14 10:33:15;;;;;;;;;;;;;;;18.26;45.99;100805.03;5096140;28;1224;-50
2024/02/14 10:35:42;;;;;;;;;;;;;;;17.08;47.70;100795.19;5086367;28;1391;-55
2024/02/14 10:38:09;;;;;;;;;;;;;;;16.89;47.38;100803.19;5068881;28;1031;-52
2024/02/14 10:40:35;;;;;;;;;;;;;;;17.00;48.06;100804.84;5093408;28;1303;-51
2024/02/14 10:43:01;;;;;;;;;;;;;;;18.30;45.95;100812.41;5094827;28;1906;-55
2024/02/14 10:45:27;;;;;;;;;;;;;;;17.14;47.86;100818.00;5095509;28;1066;-52
2024/02/14 10:47:57;;;;;;;;;;;;;;;16.88;47.50;100809.75;5077365;28;1143;-50
2024/02/14 10:50:23;;;;;;;;;;;;;;;18.61;45.30;100833.44;5085214;28;1092;-52
2024/02/14 10:52:48;;;;;;;;;;;;;;;17.32;47.39;100822.94;5076676;28;1113;-53
2024/02/14 10:55:14;;;;;;;;;;;;;;;16.89;47.42;100814.19;5088345;28;1034;-56
2024/02/14 10:57:40;;;;;;;;;;;;;;;16.84;46.81;100831.44;5078013;28;1378;-52
2024/02/14 11:00:07;;;;;;;;;;;;;;;16.62;46.41;100834.47;5090402;28;2680;-58
2024/02/14 11:02:32;;;;;;;;;;;;;;;17.82;46.60;100822.25;5073798;28;1905;-56
2024/02/14 11:04:58;;;;;;;;;;;;;;;17.28;47.54;100830.09;5095780;28;873;-58
2024/02/14 11:07:24;;;;;;;;;;;;;;;16.89;47.30;100844.41;5095246;28;1316;-53
2024/02/14 11:10:06;;;;;;;;;;;;;;;17.23;47.49;100850.13;5072439;28;1265;-56
2024/02/14 11:12:33;;;;;;;;;;;;;;;18.00;46.31;100842.84;5090913;28;876;-56
2024/02/14 11:15:00;;;;;;;;;;;;;;;17.10;47.42;100834.22;5080245;28;1187;-55
2024/02/14 11:17:26;;;;;;;;;;;;;;;16.84;47.35;100844.34;5084335;28;1201;-55
2024/02/14 11:19:52;;;;;;;;;;;;;;;16.52;46.97;100834.44;5090877;28;1118;-55
2024/02/14 11:22:18;;;;;;;;;;;;;;;16.55;46.24;100837.47;5076965;28;1909;-53
2024/02/14 11:24:47;;;;;;;;;;;;;;;16.51;46.65;100843.75;5084663;28;1268;-57
2024/02/14 11:27:12;;;;;;;;;;;;;;;18.16;46.07;100847.19;5087881;28;1105;-56
2024/02/14 11:29:39;;;;;;;;;;;;;;;17.17;47.99;100850.44;5086216;28;2088;-54
2024/02/14 11:32:08;;;;;;;;;;;;;;;17.48;47.77;100834.72;5097384;28;1096;-51
2024/02/14 11:34:33;;;;;;;;;;;;;;;18.21;45.77;100851.84;5079236;28;1083;-54
2024/02/14 11:37:02;;;;;;;;;;;;;;;17.19;47.37;100843.56;5071427;28;1315;-47
2024/02/14 11:39:27;;;;;;;;;;;;;;;16.87;47.15;100849.28;5091592;28;1098;-54
2024/02/14 11:41:53;;;;;;;;;;;;;;;16.59;46.94;100838.56;5089084;28;1277;-54
2024/02/14 11:44:19;;;;;;;;;;;;;;;18.04;46.48;100841.19;5083514;28;1905;-57
2024/02/14 11:46:45;;;;;;;;;;;;;;;17.57;46.97;100843.22;5097407;28;1271;-56
2024/02/14 11:49:11;;;;;;;;;;;;;;;16.90;47.66;100841.38;5090781;28;1113;-54
2024/02/14 11:51:36;;;;;;;;;;;;;;;17.35;47.67;100869.09;5088843;28;1189;-54
2024/02/14 11:54:06;;;;;;;;;;;;;;;18.12;46.00;100846.91;5089006;28;1261;-53
2024/02/14 11:56:35;;;;;;;;;;;;;;;17.20;47.17;100860.88;5088207;28;1020;-51
2024/02/14 11:59:04;;;;;;;;;;;;;;;16.88;47.42;100853.69;5091775;28;2327;-58
2024/02/14 12:01:36;;;;;;;;;;;;;;;18.52;45.17;100843.41;5085890;28;1227;-56
2024/02/14 12:04:03;;;;;;;;;;;;;;;17.34;46.83;100848.22;5085229;28;1914;-59
2024/02/14 12:06:31;;;;;;;;;;;;;;;16.87;46.99;100835.56;5094968;28;917;-60
2024/02/14 12:08:56;;;;;;;;;;;;;;;16.76;46.70;100841.06;5096639;28;1037;-59
2024/02/14 12:11:22;;;;;;;;;;;;;;;16.66;45.93;100859.44;5091598;28;1213;-57
2024/02/14 12:13:50;;;;;;;;;;;;;;;17.48;46.62;100853.16;5079658;28;1083;-57
2024/02/14 12:16:16;;;;;;;;;;;;;;;17.97;46.18;100851.69;5096016;28;1098;-53
2024/02/14 12:18:41;;;;;;;;;;;;;;;17.18;47.24;100846.56;5066278;28;1131;-55
2024/02/14 12:21:07;;;;;;;;;;;;;;;16.83;47.09;100850.94;5095324;28;1106;-56
2024/02/14 12:23:33;;;;;;;;;;;;;;;17.33;47.26;100862.25;5095826;28;1918;-57
2024/02/14 12:26:02;;;;;;;;;;;;;;;18.25;45.61;100858.41;5086034;28;1066;-55
2024/02/14 12:28:28;;;;;;;;;;;;;;;17.24;47.24;100859.22;5083068;28;2584;-57
2024/02/14 12:30:56;;;;;;;;;;;;;;;16.99;46.79;100857.31;5082720;28;1276;-58
2024/02/14 12:33:23;;;;;;;;;;;;;;;16.74;46.27;100858.91;5096985;28;1101;-54
2024/02/14 12:35:49;;;;;;;;;;;;;;;16.58;46.11;100855.31;5082725;28;1024;-57
2024/02/14 12:38:15;;;;;;;;;;;;;;;17.53;46.57;100859.47;5088052;28;1327;-58
2024/02/14 12:40:46;;;;;;;;;;;;;;;18.08;45.84;100854.09;5087015;28;1030;-57